Montezuma, NM (87731)

7:27 AM MST on December 27, 2014 (GMT -0700)
Las Vegas Municipal | Change Station
CLOSE
Current Station
Airport
Location: Las Vegas,
Elevation: 6877 ft
Nearby Weather Stations

Elev 6877 ft 35.65 °N, 105.14 °W | Updated 4 minutes ago

Overcast
Overcast
-5 °F
Feels Like -20 °F
N
8
Wind Variable Wind from ENE

Today
High -- | Low -- °F
--% Chance of Precip.
Yesterday
High -- | Low -- °F
Precip. -- in
7:09 AM 4:55 PM
Waxing Crescent, 37% visible
Pressure 30.10 in
Visibility 2.5 miles
Clouds Mostly Cloudy 100 ft
Windchill -20 °F
Dew Point -10 °F
Humidity 80%
Rainfall 0.00 in
Snow Depth Not available.
UV 0 out of 12
Pollen .10 out of 12
Air Quality Not available.
Flu Activity Not available.
SPECI KLVS 271423Z AUTO 07007KT 2 1/2SM HZ BKN001 M21/M23 A3010 RMK AO2 I1000 T12061233 $

More Conditions Fewer Conditions

Pressure 30.10 in
Visibility 2.5 miles
Clouds Mostly Cloudy 100 ft
Windchill -20 °F
Dew Point -10 °F
Humidity 80%
Rainfall 0.00 in
Snow Depth Not available.
UV 0 out of 12
Pollen .10 out of 12
Air Quality Not available.
Flu Activity Not available.
SPECI KLVS 271423Z AUTO 07007KT 2 1/2SM HZ BKN001 M21/M23 A3010 RMK AO2 I1000 T12061233 $

More Conditions Fewer Conditions

Nowcast | as of 7:17 am MST on December 27, 2014

Through 900 am... widespread low clouds and areas of flurries or light snow will persist across much of northeast and east central New Mexico. Locations along the Interstate 25 corridor between Las Vegas and Raton Pass as well as the Canadian river Escarpment will be especially prone to poor visibilities in light snow and fog. Near daybreak...light snow was also reported at Angel Fire. Freezing fog on roads will create slick and icy spots...especially on bridges... over culverts...and in shaded areas. Motorists should drive with extreme caution and allow additional travel time. Use low beams... reduce driving speed...and allow for plenty of room between you and other vehicles.

×

10-Day Weather Forecast

Almanac

Astronomy

Dec. 27, 2014 Rise Set
Actual Time
Civil Twilight
Nautical Twilight
Astronomical Twilight
Moon
Length of Visible Light
Length of Day
Tomorrow will be .
, % of the Moon is Illuminated

Today's Extremes

State Highs State Lows

Community

WunderPhotos

Upload Photos

1,780,916 photos uploaded!

WunderBlogs® & News

Nearby

Air Quality

  Air Quality AQ Index Pollutant
Not available.

Snow Depth

Station Depth Elevation

Earthquake Activity

City Distance Mag. Time & Date
Minimum magnitude displayed is 2.5.

Coastal Water Temperatures

Place Temperature

Nearby Weather Stations